Time;durP1;ratioP1;P1;durP2;ratioP2;P2;SDS_P1;SDS_P2;PMS_P1;PMS_P2;Temp;Humidity;BMP_temperature;BMP_pressure;BME280_temperature;BME280_humidity;BME280_pressure;Samples;Min_cycle;Max_cycle;Signal;HPM_P1;HPM_P2
2023/07/15 00:00:04;;;;;;;5.40;3.92;;;;;;;;;;5012725;28;20108;-69
2023/07/15 00:02:29;;;;;;;5.53;3.67;;;;;;;;;;4995906;28;20446;-69
2023/07/15 00:04:55;;;;;;;5.35;3.75;;;;;;;;;;5012245;28;20049;-69
2023/07/15 00:07:20;;;;;;;6.00;3.92;;;;;;;;;;5012788;28;20022;-69
2023/07/15 00:09:46;;;;;;;6.05;4.18;;;;;;;;;;5021354;28;20394;-69
2023/07/15 00:12:11;;;;;;;5.50;3.53;;;;;;;;;;5032558;28;20071;-70
2023/07/15 00:14:37;;;;;;;5.10;3.70;;;;;;;;;;5031663;28;20509;-70
2023/07/15 00:17:02;;;;;;;4.80;3.53;;;;;;;;;;5032567;28;20040;-69
2023/07/15 00:19:29;;;;;;;4.95;3.42;;;;;;;;;;5033848;28;20029;-69
2023/07/15 00:21:54;;;;;;;6.68;3.90;;;;;;;;;;5036167;28;20098;-69
2023/07/15 00:24:20;;;;;;;5.93;3.53;;;;;;;;;;5036536;28;20161;-69
2023/07/15 00:26:47;;;;;;;4.78;3.67;;;;;;;;;;5035911;28;20061;-69
2023/07/15 00:29:12;;;;;;;4.88;3.90;;;;;;;;;;5035388;28;20025;-69
2023/07/15 00:31:38;;;;;;;6.72;3.97;;;;;;;;;;5036086;28;20025;-69
2023/07/15 00:34:03;;;;;;;7.57;4.05;;;;;;;;;;5035810;28;20390;-69
2023/07/15 00:36:31;;;;;;;5.68;4.05;;;;;;;;;;5035425;28;20025;-69
2023/07/15 00:38:56;;;;;;;5.55;3.75;;;;;;;;;;5018035;28;20021;-69
2023/07/15 00:41:29;;;;;;;4.60;3.10;;;;;;;;;;5035980;28;20022;-69
2023/07/15 00:46:28;;;;;;;5.05;3.72;;;;;;;;;;5035844;28;20037;-69
2023/07/15 00:48:57;;;;;;;;;;;;;;;;;;5035682;28;20025;-69
2023/07/15 00:51:24;;;;;;;5.50;3.22;;;;;;;;;;5017986;28;19915;-69
2023/07/15 00:53:49;;;;;;;4.38;3.33;;;;;;;;;;5017986;28;20390;-69
2023/07/15 00:56:16;;;;;;;7.18;3.63;;;;;;;;;;5017676;28;20029;-69
2023/07/15 00:58:41;;;;;;;5.72;4.32;;;;;;;;;;5017465;28;20405;-69
2023/07/15 01:01:10;;;;;;;5.72;4.25;;;;;;;;;;5033765;28;20021;-69
2023/07/15 01:03:37;;;;;;;6.72;3.50;;;;;;;;;;5017257;28;20485;-69
2023/07/15 01:06:02;;;;;;;5.93;4.28;;;;;;;;;;5001165;28;20520;-70
2023/07/15 01:08:28;;;;;;;5.43;3.85;;;;;;;;;;4998949;28;20041;-69
2023/07/15 01:10:55;;;;;;;6.43;4.30;;;;;;;;;;5015413;28;20471;-69
2023/07/15 01:13:20;;;;;;;5.60;3.47;;;;;;;;;;5015557;28;20030;-69
2023/07/15 01:15:46;;;;;;;4.40;3.40;;;;;;;;;;5027380;28;20025;-69
2023/07/15 01:18:12;;;;;;;5.05;3.58;;;;;;;;;;5035187;28;20029;-69
2023/07/15 01:20:37;;;;;;;5.38;3.75;;;;;;;;;;5034683;28;20478;-69
2023/07/15 01:23:03;;;;;;;5.00;3.33;;;;;;;;;;5017180;28;20025;-69
2023/07/15 01:25:28;;;;;;;5.57;3.80;;;;;;;;;;5017466;28;20445;-69
2023/07/15 01:27:53;;;;;;;5.38;3.65;;;;;;;;;;5034047;28;20109;-69
2023/07/15 01:30:19;;;;;;;5.80;3.63;;;;;;;;;;5034675;28;20029;-69
2023/07/15 01:32:44;;;;;;;4.60;3.33;;;;;;;;;;5016852;28;20028;-69
2023/07/15 01:35:09;;;;;;;5.07;3.80;;;;;;;;;;5017232;28;20113;-69
2023/07/15 01:37:35;;;;;;;6.80;3.55;;;;;;;;;;5017321;28;20017;-69
2023/07/15 01:40:00;;;;;;;4.90;3.80;;;;;;;;;;5034599;28;20033;-69
2023/07/15 01:42:25;;;;;;;4.72;3.40;;;;;;;;;;5034118;28;20108;-69
2023/07/15 01:44:51;;;;;;;4.90;3.60;;;;;;;;;;5034456;28;20021;-69
2023/07/15 01:47:16;;;;;;;5.07;3.58;;;;;;;;;;5017116;28;20018;-70
2023/07/15 01:49:42;;;;;;;6.00;3.63;;;;;;;;;;5034428;28;20036;-70
2023/07/15 01:52:08;;;;;;;5.18;3.92;;;;;;;;;;5016519;28;20030;-69
2023/07/15 01:54:33;;;;;;;5.35;3.65;;;;;;;;;;5034111;28;20398;-69
2023/07/15 01:56:58;;;;;;;5.53;3.65;;;;;;;;;;5034376;28;20097;-69
2023/07/15 01:59:23;;;;;;;5.85;3.95;;;;;;;;;;5016290;28;20030;-69
2023/07/15 02:01:49;;;;;;;5.38;3.53;;;;;;;;;;5033685;28;20493;-69
2023/07/15 02:04:14;;;;;;;5.53;3.65;;;;;;;;;;5034255;28;20470;-69
2023/07/15 02:06:40;;;;;;;4.80;3.60;;;;;;;;;;5034096;28;20025;-69
2023/07/15 02:09:07;;;;;;;6.97;4.32;;;;;;;;;;5016392;28;20031;-69
2023/07/15 02:11:34;;;;;;;4.20;3.50;;;;;;;;;;5033909;28;20052;-69
2023/07/15 02:13:59;;;;;;;7.00;5.10;;;;;;;;;;5033775;28;20454;-69
2023/07/15 02:16:24;;;;;;;5.82;4.75;;;;;;;;;;5034117;28;20053;-69
2023/07/15 02:18:50;;;;;;;5.78;3.90;;;;;;;;;;5034032;28;20021;-69
2023/07/15 02:21:16;;;;;;;5.20;3.95;;;;;;;;;;5033306;28;20100;-70
2023/07/15 02:23:41;;;;;;;5.90;3.67;;;;;;;;;;5033809;28;20020;-69
2023/07/15 02:26:06;;;;;;;5.28;3.72;;;;;;;;;;5034291;28;20394;-69
2023/07/15 02:28:32;;;;;;;5.28;4.10;;;;;;;;;;5033498;28;20052;-69
2023/07/15 02:30:59;;;;;;;5.63;3.75;;;;;;;;;;5033161;28;20040;-69
2023/07/15 02:33:24;;;;;;;5.50;3.53;;;;;;;;;;5033586;28;20026;-69
2023/07/15 02:35:50;;;;;;;5.20;3.67;;;;;;;;;;5033844;28;20456;-69
2023/07/15 02:38:15;;;;;;;9.25;3.97;;;;;;;;;;4999351;28;20024;-69
2023/07/15 02:40:40;;;;;;;5.40;3.40;;;;;;;;;;5033725;28;20025;-69
2023/07/15 02:43:06;;;;;;;9.52;3.92;;;;;;;;;;5033307;28;20053;-69
2023/07/15 02:45:31;;;;;;;5.65;3.10;;;;;;;;;;5032951;28;20014;-69
2023/07/15 02:47:56;;;;;;;6.47;3.40;;;;;;;;;;5033726;28;20044;-69
2023/07/15 02:50:22;;;;;;;4.20;3.28;;;;;;;;;;5030378;28;20042;-69
2023/07/15 02:52:47;;;;;;;7.45;4.22;;;;;;;;;;5033090;28;20017;-70
2023/07/15 02:55:12;;;;;;;5.28;3.47;;;;;;;;;;5032936;28;20021;-69
2023/07/15 02:57:38;;;;;;;5.28;3.00;;;;;;;;;;5000848;28;20036;-69
2023/07/15 03:00:15;;;;;;;4.60;3.40;;;;;;;;;;5013337;28;20034;-69
2023/07/15 03:02:49;;;;;;;5.85;3.90;;;;;;;;;;4998303;28;20410;-69
2023/07/15 03:05:18;;;;;;;6.60;3.50;;;;;;;;;;5029602;28;20025;-69
2023/07/15 03:07:45;;;;;;;3.70;2.75;;;;;;;;;;5032915;28;20017;-69
2023/07/15 03:10:12;;;;;;;8.45;3.95;;;;;;;;;;5015693;28;20037;-69
2023/07/15 03:12:37;;;;;;;5.20;3.03;;;;;;;;;;5015589;28;20048;-70
2023/07/15 03:15:03;;;;;;;5.13;3.58;;;;;;;;;;5013574;28;20068;-70
2023/07/15 03:17:35;;;;;;;4.82;3.45;;;;;;;;;;5033188;28;20025;-69
2023/07/15 03:20:00;;;;;;;5.35;3.67;;;;;;;;;;5029525;28;20083;-70
2023/07/15 03:22:25;;;;;;;4.45;3.08;;;;;;;;;;5015489;28;20021;-69
2023/07/15 03:24:51;;;;;;;4.97;3.45;;;;;;;;;;5032687;28;20032;-69
2023/07/15 03:27:16;;;;;;;4.40;3.10;;;;;;;;;;5013578;28;20061;-69
2023/07/15 03:29:41;;;;;;;3.67;2.97;;;;;;;;;;5012469;28;20026;-70
2023/07/15 03:32:07;;;;;;;4.82;3.10;;;;;;;;;;4979539;28;20151;-70
2023/07/15 03:34:32;;;;;;;6.50;3.40;;;;;;;;;;5014843;28;20033;-69
2023/07/15 03:36:58;;;;;;;5.22;3.10;;;;;;;;;;5012564;28;20018;-70
2023/07/15 03:39:24;;;;;;;4.05;2.75;;;;;;;;;;5014719;28;20034;-70
2023/07/15 03:41:49;;;;;;;6.47;4.45;;;;;;;;;;5011679;28;20036;-69
2023/07/15 03:44:14;;;;;;;4.90;3.20;;;;;;;;;;5023776;28;20025;-70
2023/07/15 03:46:39;;;;;;;5.82;3.03;;;;;;;;;;5015171;28;20405;-69
2023/07/15 03:49:06;;;;;;;5.40;3.28;;;;;;;;;;5014801;28;20017;-69
2023/07/15 03:51:31;;;;;;;7.38;3.00;;;;;;;;;;5014968;28;20025;-69
2023/07/15 03:53:57;;;;;;;4.65;3.10;;;;;;;;;;5021495;28;20548;-69
2023/07/15 03:56:22;;;;;;;3.83;3.08;;;;;;;;;;4999081;28;20489;-69
2023/07/15 03:58:47;;;;;;;3.72;3.13;;;;;;;;;;4999010;28;20030;-69
2023/07/15 04:01:13;;;;;;;3.58;2.67;;;;;;;;;;4998773;28;20049;-69
2023/07/15 04:03:39;;;;;;;5.50;3.13;;;;;;;;;;5016624;28;20475;-69
2023/07/15 04:06:04;;;;;;;4.60;2.83;;;;;;;;;;5017252;28;20030;-69
2023/07/15 04:08:30;;;;;;;3.38;2.25;;;;;;;;;;5016317;28;20421;-69
2023/07/15 04:10:55;;;;;;;3.75;2.90;;;;;;;;;;5021498;28;20033;-69
2023/07/15 04:13:20;;;;;;;4.80;3.10;;;;;;;;;;5018851;28;20087;-69
2023/07/15 04:15:46;;;;;;;4.07;2.95;;;;;;;;;;5036350;28;20479;-70
2023/07/15 04:18:11;;;;;;;4.68;3.40;;;;;;;;;;5014296;28;20037;-69
2023/07/15 04:20:36;;;;;;;4.72;3.08;;;;;;;;;;5031176;28;20109;-69
2023/07/15 04:23:01;;;;;;;5.88;3.40;;;;;;;;;;5036213;28;20025;-70
2023/07/15 04:25:27;;;;;;;2.97;2.33;;;;;;;;;;5033247;28;20689;-69
2023/07/15 04:27:52;;;;;;;5.53;3.10;;;;;;;;;;5034944;28;20037;-69
2023/07/15 04:30:17;;;;;;;4.32;2.85;;;;;;;;;;5035813;28;20037;-69
2023/07/15 04:32:43;;;;;;;4.80;3.10;;;;;;;;;;5015923;28;20037;-69
2023/07/15 04:35:08;;;;;;;5.55;3.00;;;;;;;;;;5020579;28;20467;-69
2023/07/15 04:37:35;;;;;;;4.88;2.83;;;;;;;;;;4998397;28;20479;-69
2023/07/15 04:40:03;;;;;;;5.40;2.75;;;;;;;;;;5029843;28;20040;-69
2023/07/15 04:42:29;;;;;;;4.75;2.95;;;;;;;;;;5035934;28;20033;-70
2023/07/15 04:44:54;;;;;;;4.50;2.95;;;;;;;;;;5027991;28;20034;-70
2023/07/15 04:47:19;;;;;;;4.53;3.13;;;;;;;;;;5015867;28;20021;-69
2023/07/15 04:49:44;;;;;;;5.35;2.58;;;;;;;;;;5006796;28;20033;-69
2023/07/15 04:52:10;;;;;;;4.45;2.83;;;;;;;;;;5015926;28;20449;-70
2023/07/15 04:54:35;;;;;;;5.32;2.80;;;;;;;;;;5016113;28;20030;-69
2023/07/15 04:57:00;;;;;;;6.68;2.97;;;;;;;;;;5035776;28;20021;-70
2023/07/15 04:59:26;;;;;;;5.20;2.80;;;;;;;;;;5035034;28;20403;-70
2023/07/15 05:01:51;;;;;;;3.42;2.70;;;;;;;;;;5035589;28;20540;-69
2023/07/15 05:04:16;;;;;;;4.07;2.63;;;;;;;;;;5034727;28;20049;-69
2023/07/15 05:06:42;;;;;;;3.90;2.75;;;;;;;;;;5016429;28;20057;-69
2023/07/15 05:09:07;;;;;;;3.83;2.78;;;;;;;;;;5035335;28;20576;-69
2023/07/15 05:11:32;;;;;;;6.03;2.80;;;;;;;;;;5035770;28;20079;-69
2023/07/15 05:13:58;;;;;;;4.50;2.75;;;;;;;;;;5034596;28;20160;-69
2023/07/15 05:16:23;;;;;;;4.28;3.28;;;;;;;;;;5034854;28;20045;-70
2023/07/15 05:18:48;;;;;;;4.22;2.65;;;;;;;;;;5035203;28;20474;-70
2023/07/15 05:21:14;;;;;;;3.78;2.72;;;;;;;;;;5035022;28;20033;-70
2023/07/15 05:23:39;;;;;;;9.15;2.97;;;;;;;;;;5017324;28;20013;-69
2023/07/15 05:26:04;;;;;;;4.55;3.03;;;;;;;;;;5034698;28;20021;-69
2023/07/15 05:28:32;;;;;;;5.93;2.78;;;;;;;;;;5034611;28;20406;-69
2023/07/15 05:30:59;;;;;;;4.82;2.65;;;;;;;;;;5020098;28;20091;-69
2023/07/15 05:33:24;;;;;;;3.92;3.15;;;;;;;;;;4997489;28;20095;-70
2023/07/15 05:35:50;;;;;;;4.55;2.67;;;;;;;;;;5033250;28;20501;-69
2023/07/15 05:38:15;;;;;;;5.07;2.58;;;;;;;;;;5017024;28;20029;-69
2023/07/15 05:40:41;;;;;;;4.82;3.05;;;;;;;;;;5012517;28;20041;-69
2023/07/15 05:43:07;;;;;;;3.78;2.85;;;;;;;;;;5014893;28;20021;-70
2023/07/15 05:45:32;;;;;;;4.35;2.88;;;;;;;;;;5021516;28;20063;-70
2023/07/15 05:47:57;;;;;;;4.75;2.75;;;;;;;;;;5034963;28;20076;-70
2023/07/15 05:50:22;;;;;;;5.00;2.67;;;;;;;;;;5033775;28;20029;-70
2023/07/15 05:52:48;;;;;;;4.85;2.50;;;;;;;;;;5034284;28;20030;-70
2023/07/15 05:55:13;;;;;;;4.53;2.55;;;;;;;;;;5033682;28;20028;-70
2023/07/15 05:57:38;;;;;;;7.32;2.78;;;;;;;;;;5012820;28;20030;-70
2023/07/15 06:00:07;;;;;;;3.67;2.67;;;;;;;;;;5019125;28;20025;-70
2023/07/15 06:02:32;;;;;;;7.38;2.88;;;;;;;;;;5034185;28;20028;-69
2023/07/15 06:04:58;;;;;;;3.42;2.70;;;;;;;;;;5019663;28;20026;-69
2023/07/15 06:07:23;;;;;;;6.03;3.22;;;;;;;;;;5013727;28;20451;-70
2023/07/15 06:09:54;;;;;;;5.75;2.80;;;;;;;;;;5014298;28;20026;-70
2023/07/15 06:12:19;;;;;;;;;;;;;;;;;;5030475;28;20437;-70
2023/07/15 06:14:44;;;;;;;10.03;3.27;;;;;;;;;;5016214;28;19913;-69
2023/07/15 06:17:10;;;;;;;4.20;2.85;;;;;;;;;;5015919;28;20644;-70
2023/07/15 06:19:36;;;;;;;5.15;3.40;;;;;;;;;;5033297;28;20025;-70
2023/07/15 06:22:01;;;;;;;6.35;2.97;;;;;;;;;;5034049;28;20367;-70
2023/07/15 06:24:26;;;;;;;4.38;2.70;;;;;;;;;;5033680;28;20028;-70
2023/07/15 06:26:52;;;;;;;4.20;2.85;;;;;;;;;;5034016;28;20017;-70
2023/07/15 06:29:17;;;;;;;4.93;2.60;;;;;;;;;;5015875;28;20033;-69
2023/07/15 06:31:42;;;;;;;4.13;3.10;;;;;;;;;;5033303;28;20379;-70
2023/07/15 06:34:08;;;;;;;3.33;2.83;;;;;;;;;;5033639;28;20108;-70
2023/07/15 06:36:33;;;;;;;4.18;2.65;;;;;;;;;;5029952;28;20450;-70
2023/07/15 06:38:58;;;;;;;5.22;2.95;;;;;;;;;;5025052;28;20034;-70
2023/07/15 06:41:23;;;;;;;3.78;3.00;;;;;;;;;;5013595;28;20105;-70
2023/07/15 06:43:49;;;;;;;3.65;2.97;;;;;;;;;;5018959;28;20379;-70
2023/07/15 06:46:14;;;;;;;5.63;3.05;;;;;;;;;;5030980;28;20029;-69
2023/07/15 06:48:39;;;;;;;4.40;3.05;;;;;;;;;;5033193;28;20100;-69
2023/07/15 06:51:04;;;;;;;4.47;2.88;;;;;;;;;;5029605;28;20034;-70
2023/07/15 06:53:30;;;;;;;6.93;2.50;;;;;;;;;;5015494;28;20022;-70
2023/07/15 06:55:55;;;;;;;3.42;2.83;;;;;;;;;;5022036;28;20034;-70
2023/07/15 06:58:21;;;;;;;6.78;3.00;;;;;;;;;;5013585;28;20070;-70
2023/07/15 07:00:47;;;;;;;5.82;2.75;;;;;;;;;;5017256;28;20101;-70
2023/07/15 07:03:12;;;;;;;4.93;2.80;;;;;;;;;;5033425;28;20500;-70
2023/07/15 07:05:37;;;;;;;5.18;2.58;;;;;;;;;;5014452;28;20026;-70
2023/07/15 07:08:03;;;;;;;3.97;2.95;;;;;;;;;;5012671;28;20044;-70
2023/07/15 07:10:29;;;;;;;7.95;3.00;;;;;;;;;;5013531;28;20376;-70
2023/07/15 07:12:54;;;;;;;6.50;3.20;;;;;;;;;;5009546;28;20025;-70
2023/07/15 07:15:19;;;;;;;5.07;2.97;;;;;;;;;;5013089;28;20033;-69
2023/07/15 07:17:45;;;;;;;7.38;3.35;;;;;;;;;;4995876;28;20420;-70
2023/07/15 07:20:10;;;;;;;5.00;2.80;;;;;;;;;;5013280;28;20034;-70
2023/07/15 07:22:35;;;;;;;4.45;2.33;;;;;;;;;;4994971;28;20033;-69
2023/07/15 07:25:01;;;;;;;5.97;3.20;;;;;;;;;;5008864;28;20025;-69
2023/07/15 07:27:26;;;;;;;4.85;2.78;;;;;;;;;;5032859;28;20056;-69
2023/07/15 07:29:52;;;;;;;4.40;2.63;;;;;;;;;;5031857;28;20475;-70
2023/07/15 07:32:18;;;;;;;5.22;3.03;;;;;;;;;;5014836;28;20074;-69
2023/07/15 07:34:43;;;;;;;5.80;2.70;;;;;;;;;;5032332;28;20030;-69
2023/07/15 07:37:08;;;;;;;4.65;3.03;;;;;;;;;;5032794;28;20025;-70
2023/07/15 07:39:34;;;;;;;5.20;2.75;;;;;;;;;;5032720;28;20021;-70
2023/07/15 07:41:59;;;;;;;6.40;3.30;;;;;;;;;;5032682;28;20035;-70
2023/07/15 07:44:24;;;;;;;5.85;3.20;;;;;;;;;;5032221;28;20033;-70
2023/07/15 07:46:49;;;;;;;4.65;2.92;;;;;;;;;;5028885;28;20059;-69
2023/07/15 07:49:15;;;;;;;4.85;2.78;;;;;;;;;;5013529;28;20033;-69
2023/07/15 07:51:40;;;;;;;3.78;2.70;;;;;;;;;;5018617;28;20038;-70
2023/07/15 07:54:05;;;;;;;4.57;2.80;;;;;;;;;;5021223;28;20022;-69
2023/07/15 07:56:31;;;;;;;5.47;2.92;;;;;;;;;;5032677;28;20022;-70
2023/07/15 07:58:58;;;;;;;6.20;3.00;;;;;;;;;;5014391;28;20104;-69
2023/07/15 08:01:24;;;;;;;3.97;2.58;;;;;;;;;;5064893;23;20037;-76
2023/07/15 08:03:49;;;;;;;5.43;2.65;;;;;;;;;;5051484;28;20487;-75
2023/07/15 08:06:15;;;;;;;6.28;2.33;;;;;;;;;;5050747;28;20113;-75
2023/07/15 08:08:41;;;;;;;4.90;2.60;;;;;;;;;;5052596;28;20032;-75
2023/07/15 08:11:06;;;;;;;5.68;2.85;;;;;;;;;;5051117;28;20040;-75
2023/07/15 08:13:32;;;;;;;4.65;2.90;;;;;;;;;;5052418;28;20028;-75
2023/07/15 08:15:58;;;;;;;6.78;2.88;;;;;;;;;;5049038;28;20034;-75
2023/07/15 08:18:23;;;;;;;4.57;3.15;;;;;;;;;;5051330;28;20032;-75
2023/07/15 08:20:49;;;;;;;4.10;2.70;;;;;;;;;;5046527;28;20021;-75
2023/07/15 08:23:14;;;;;;;4.57;2.95;;;;;;;;;;5032583;28;20409;-75
2023/07/15 08:25:39;;;;;;;3.15;2.53;;;;;;;;;;5030494;28;20071;-75
2023/07/15 08:28:04;;;;;;;3.95;2.45;;;;;;;;;;5048228;28;20100;-75
2023/07/15 08:30:30;;;;;;;4.60;2.75;;;;;;;;;;5047566;28;20029;-75
2023/07/15 08:32:55;;;;;;;5.38;2.70;;;;;;;;;;5049632;28;20401;-75
2023/07/15 08:35:21;;;;;;;3.72;3.00;;;;;;;;;;5045006;28;20025;-75
2023/07/15 08:37:46;;;;;;;4.53;2.70;;;;;;;;;;5030500;28;20022;-75
2023/07/15 08:40:12;;;;;;;5.63;2.88;;;;;;;;;;5035429;28;20458;-75
2023/07/15 08:42:38;;;;;;;5.55;3.00;;;;;;;;;;5055970;28;20512;-75
2023/07/15 08:45:03;;;;;;;7.00;2.80;;;;;;;;;;5037543;28;20072;-75
2023/07/15 08:47:29;;;;;;;3.92;2.55;;;;;;;;;;5050857;28;20029;-75
2023/07/15 08:49:55;;;;;;;3.88;2.72;;;;;;;;;;5037792;28;20038;-75
2023/07/15 08:52:22;;;;;;;3.60;2.85;;;;;;;;;;5033831;28;20075;-75
2023/07/15 08:54:50;;;;;;;7.07;3.13;;;;;;;;;;5035263;28;20497;-74
2023/07/15 08:57:19;;;;;;;4.20;2.53;;;;;;;;;;5055116;28;20061;-75
2023/07/15 08:59:45;;;;;;;5.95;2.80;;;;;;;;;;5050599;28;20037;-74
2023/07/15 09:02:10;;;;;;;5.13;3.20;;;;;;;;;;5050252;28;20035;-75
2023/07/15 09:04:36;;;;;;;3.58;2.55;;;;;;;;;;5036614;28;20030;-74
2023/07/15 09:07:01;;;;;;;4.93;2.40;;;;;;;;;;5053301;28;20100;-76
2023/07/15 09:09:42;;;;;;;4.45;2.78;;;;;;;;;;5054655;28;20052;-75
2023/07/15 09:12:11;;;;;;;5.55;2.70;;;;;;;;;;5055012;28;20036;-76
2023/07/15 09:14:42;;;;;;;4.47;2.85;;;;;;;;;;5054811;28;20029;-75
2023/07/15 09:17:08;;;;;;;4.57;2.70;;;;;;;;;;5050508;28;20021;-75
2023/07/15 09:19:34;;;;;;;3.45;2.78;;;;;;;;;;5035375;28;20021;-74
2023/07/15 09:22:08;;;;;;;5.07;2.92;;;;;;;;;;5053940;28;20064;-74
2023/07/15 09:24:34;;;;;;;5.70;3.20;;;;;;;;;;5053096;28;20108;-75
2023/07/15 09:27:00;;;;;;;5.55;3.10;;;;;;;;;;5033101;28;20116;-76
2023/07/15 09:29:25;;;;;;;3.60;2.58;;;;;;;;;;5033660;28;20037;-76
2023/07/15 09:31:50;;;;;;;3.90;2.72;;;;;;;;;;5040476;28;20024;-77
2023/07/15 09:34:17;;;;;;;4.13;3.00;;;;;;;;;;5033602;28;20029;-75
2023/07/15 09:36:42;;;;;;;4.90;2.80;;;;;;;;;;5050975;28;20037;-75
2023/07/15 09:39:12;;;;;;;6.10;2.92;;;;;;;;;;5053387;28;20021;-75
2023/07/15 09:41:38;;;;;;;6.38;3.22;;;;;;;;;;5052478;28;20029;-75
2023/07/15 09:44:03;;;;;;;5.53;2.70;;;;;;;;;;5052904;28;20032;-76
2023/07/15 09:46:29;;;;;;;5.55;3.22;;;;;;;;;;5049892;28;20036;-76
2023/07/15 09:48:56;;;;;;;4.60;2.90;;;;;;;;;;5053430;28;20567;-76
2023/07/15 09:51:21;;;;;;;4.18;2.80;;;;;;;;;;5052096;28;20029;-76
2023/07/15 09:53:50;;;;;;;6.07;3.38;;;;;;;;;;5053164;28;20500;-76
2023/07/15 09:56:24;;;;;;;4.25;3.17;;;;;;;;;;5054062;28;20064;-75
2023/07/15 09:58:50;;;;;;;4.07;3.03;;;;;;;;;;5049424;28;20025;-75
2023/07/15 10:01:35;;;;;;;4.25;2.92;;;;;;;;;;5043758;28;20033;-75
2023/07/15 10:04:16;;;;;;;6.25;2.97;;;;;;;;;;5052861;28;20477;-75
2023/07/15 10:06:43;;;;;;;5.22;3.03;;;;;;;;;;5035942;28;20020;-76
2023/07/15 10:09:09;;;;;;;3.75;2.65;;;;;;;;;;5036326;28;20021;-76
2023/07/15 10:11:35;;;;;;;5.22;2.65;;;;;;;;;;5053673;28;20083;-76
2023/07/15 10:14:00;;;;;;;7.07;2.50;;;;;;;;;;5036227;28;20039;-76
2023/07/15 10:16:26;;;;;;;3.35;2.33;;;;;;;;;;5053030;28;20025;-76
2023/07/15 10:18:54;;;;;;;3.95;2.42;;;;;;;;;;5053441;28;20083;-76
2023/07/15 10:21:19;;;;;;;6.65;2.58;;;;;;;;;;5053681;28;20435;-75
2023/07/15 10:23:44;;;;;;;3.88;2.30;;;;;;;;;;5052692;28;20033;-76
2023/07/15 10:26:10;;;;;;;4.05;2.53;;;;;;;;;;5035991;28;20036;-76
2023/07/15 10:28:40;;;;;;;4.63;2.40;;;;;;;;;;5052660;28;20453;-76
2023/07/15 10:31:08;;;;;;;4.35;2.30;;;;;;;;;;5051628;28;20078;-76
2023/07/15 10:33:35;;;;;;;5.28;2.55;;;;;;;;;;5052347;28;20025;-76
2023/07/15 10:36:03;;;;;;;3.80;2.33;;;;;;;;;;5053372;28;20501;-76
2023/07/15 10:38:31;;;;;;;6.55;2.45;;;;;;;;;;5051878;28;20040;-75
2023/07/15 10:40:59;;;;;;;3.75;2.30;;;;;;;;;;5052494;28;20020;-76
2023/07/15 10:43:34;;;;;;;2.95;2.33;;;;;;;;;;5052073;28;20033;-76
2023/07/15 10:46:02;;;;;;;4.82;2.53;;;;;;;;;;5053501;28;20482;-76
2023/07/15 10:48:27;;;;;;;3.85;2.58;;;;;;;;;;5051474;28;20103;-76
2023/07/15 10:50:54;;;;;;;3.70;2.45;;;;;;;;;;5053339;28;20496;-76
2023/07/15 10:53:23;;;;;;;4.43;2.45;;;;;;;;;;5052235;28;20473;-76
2023/07/15 10:56:02;;;;;;;4.82;2.60;;;;;;;;;;5051884;28;20421;-76
2023/07/15 10:58:28;;;;;;;5.03;2.85;;;;;;;;;;5051755;28;20040;-76
2023/07/15 11:01:00;;;;;;;3.15;2.70;;;;;;;;;;5053165;28;20486;-75
2023/07/15 11:03:26;;;;;;;3.88;2.65;;;;;;;;;;5053013;28;20079;-76
2023/07/15 11:05:54;;;;;;;4.22;2.70;;;;;;;;;;5053147;28;20017;-76
2023/07/15 11:08:19;;;;;;;6.85;2.63;;;;;;;;;;5051802;28;20025;-76
2023/07/15 11:10:45;;;;;;;3.92;2.50;;;;;;;;;;5052401;28;20033;-76
2023/07/15 11:13:14;;;;;;;5.38;2.58;;;;;;;;;;5052212;28;20028;-76
2023/07/15 11:15:40;;;;;;;5.18;2.90;;;;;;;;;;5051505;28;20055;-76
2023/07/15 11:18:05;;;;;;;3.58;2.40;;;;;;;;;;5052291;28;20029;-76
2023/07/15 11:20:33;;;;;;;3.58;2.58;;;;;;;;;;5050990;28;20485;-76
2023/07/15 11:22:58;;;;;;;4.57;2.70;;;;;;;;;;5051812;28;20029;-76
2023/07/15 11:25:24;;;;;;;5.18;2.42;;;;;;;;;;5051827;28;20024;-76
2023/07/15 11:27:50;;;;;;;3.10;2.53;;;;;;;;;;5052928;28;20032;-76
2023/07/15 11:30:15;;;;;;;5.00;2.97;;;;;;;;;;5051425;28;20111;-76
2023/07/15 11:32:40;;;;;;;3.97;2.47;;;;;;;;;;5053086;28;20067;-76
2023/07/15 11:35:12;;;;;;;5.20;2.30;;;;;;;;;;5052248;28;20029;-73
2023/07/15 11:37:45;;;;;;;5.43;2.38;;;;;;;;;;5051609;28;20125;-74
2023/07/15 11:40:17;;;;;;;3.67;2.15;;;;;;;;;;5051446;28;20518;-74
2023/07/15 11:42:42;;;;;;;3.58;2.25;;;;;;;;;;5053089;28;20389;-74
2023/07/15 11:45:08;;;;;;;2.60;1.88;;;;;;;;;;5050920;28;20029;-74
2023/07/15 11:47:35;;;;;;;2.58;1.70;;;;;;;;;;5053094;28;20041;-74
2023/07/15 11:50:00;;;;;;;5.13;2.30;;;;;;;;;;5049177;28;20461;-73
2023/07/15 11:52:25;;;;;;;3.67;2.00;;;;;;;;;;5050526;28;20056;-74
2023/07/15 11:54:53;;;;;;;3.38;1.90;;;;;;;;;;5052289;28;20075;-74
2023/07/15 11:57:26;;;;;;;5.32;2.10;;;;;;;;;;5047565;28;20104;-73
2023/07/15 11:59:51;;;;;;;2.40;1.80;;;;;;;;;;5031379;28;20441;-73
2023/07/15 12:02:16;;;;;;;4.60;2.10;;;;;;;;;;5050481;28;20024;-73
2023/07/15 12:04:42;;;;;;;6.53;2.00;;;;;;;;;;5050710;28;20033;-74
2023/07/15 12:07:07;;;;;;;4.40;2.08;;;;;;;;;;5051174;28;20028;-73
2023/07/15 12:09:33;;;;;;;2.72;1.67;;;;;;;;;;5051128;28;20082;-74
2023/07/15 12:11:59;;;;;;;3.95;1.92;;;;;;;;;;5052367;28;20401;-74
2023/07/15 12:14:25;;;;;;;3.53;2.00;;;;;;;;;;5051140;28;20037;-74
2023/07/15 12:16:53;;;;;;;2.92;1.98;;;;;;;;;;5056191;28;20020;-73
2023/07/15 12:19:19;;;;;;;2.38;1.80;;;;;;;;;;5038078;28;20028;-73
2023/07/15 12:21:45;;;;;;;3.67;2.03;;;;;;;;;;5034961;28;20071;-73
2023/07/15 12:24:10;;;;;;;2.92;2.10;;;;;;;;;;5018457;28;20017;-73
2023/07/15 12:26:35;;;;;;;2.70;1.67;;;;;;;;;;5051906;28;20075;-73
2023/07/15 12:29:00;;;;;;;4.80;1.75;;;;;;;;;;5056250;28;20108;-73
2023/07/15 12:31:26;;;;;;;3.03;1.83;;;;;;;;;;5055802;28;20052;-74
2023/07/15 12:33:51;;;;;;;3.97;2.00;;;;;;;;;;5055946;28;20060;-74
2023/07/15 12:36:17;;;;;;;4.45;2.17;;;;;;;;;;5054472;28;20071;-73
2023/07/15 12:38:43;;;;;;;3.25;2.00;;;;;;;;;;5054369;28;20032;-73
2023/07/15 12:41:08;;;;;;;2.92;2.03;;;;;;;;;;5054125;28;20029;-73
2023/07/15 12:43:34;;;;;;;2.60;2.10;;;;;;;;;;5055659;28;20024;-74
2023/07/15 12:46:01;;;;;;;4.70;2.10;;;;;;;;;;5054421;28;20017;-74
2023/07/15 12:48:26;;;;;;;3.10;2.13;;;;;;;;;;5054326;28;20047;-74
2023/07/15 12:50:51;;;;;;;2.80;1.98;;;;;;;;;;5054167;28;20485;-74
2023/07/15 12:53:17;;;;;;;3.03;2.08;;;;;;;;;;5053929;28;20025;-74
2023/07/15 12:55:43;;;;;;;3.15;1.90;;;;;;;;;;5037532;28;20021;-73
2023/07/15 12:58:08;;;;;;;4.05;2.20;;;;;;;;;;5053993;28;20450;-74
2023/07/15 13:00:33;;;;;;;3.50;2.60;;;;;;;;;;5053655;28;20020;-74
2023/07/15 13:02:58;;;;;;;3.83;2.10;;;;;;;;;;5055114;28;20095;-74
2023/07/15 13:05:24;;;;;;;4.70;2.45;;;;;;;;;;5054755;28;20032;-74
2023/07/15 13:07:49;;;;;;;3.15;2.00;;;;;;;;;;5054067;28;20094;-74
2023/07/15 13:10:14;;;;;;;4.00;2.10;;;;;;;;;;5050177;28;20064;-74
2023/07/15 13:12:40;;;;;;;8.95;2.67;;;;;;;;;;5050534;28;20172;-75
2023/07/15 13:15:05;;;;;;;3.47;2.40;;;;;;;;;;5053499;28;20043;-75
2023/07/15 13:17:31;;;;;;;5.70;2.38;;;;;;;;;;5050600;28;20025;-75
2023/07/15 13:19:56;;;;;;;3.17;2.30;;;;;;;;;;5041566;28;20397;-76
2023/07/15 13:22:21;;;;;;;3.13;2.00;;;;;;;;;;5048052;28;20033;-75
2023/07/15 13:24:49;;;;;;;3.42;2.58;;;;;;;;;;5042085;28;20013;-74
2023/07/15 13:27:14;;;;;;;4.00;2.28;;;;;;;;;;5041739;28;20104;-74
2023/07/15 13:29:40;;;;;;;3.03;2.10;;;;;;;;;;5045993;28;20112;-74
2023/07/15 13:32:05;;;;;;;6.57;1.98;;;;;;;;;;5047444;28;20064;-74
2023/07/15 13:34:31;;;;;;;3.83;2.17;;;;;;;;;;5049313;28;20104;-74
2023/07/15 13:36:56;;;;;;;3.40;2.08;;;;;;;;;;5039581;28;20593;-75
2023/07/15 13:39:39;;;;;;;3.50;2.20;;;;;;;;;;5043413;28;20025;-75
2023/07/15 13:42:06;;;;;;;3.63;2.10;;;;;;;;;;5049126;28;20017;-75
2023/07/15 13:44:33;;;;;;;3.03;2.10;;;;;;;;;;5049242;28;20024;-74
2023/07/15 13:46:58;;;;;;;3.92;2.30;;;;;;;;;;5041160;28;20075;-74
2023/07/15 13:49:27;;;;;;;4.78;2.35;;;;;;;;;;5039876;28;20021;-76
2023/07/15 13:51:57;;;;;;;4.60;2.20;;;;;;;;;;5041573;28;20092;-74
2023/07/15 13:54:23;;;;;;;3.78;2.45;;;;;;;;;;5024198;28;20474;-74
2023/07/15 13:56:49;;;;;;;5.22;2.60;;;;;;;;;;5044085;28;20112;-76
2023/07/15 13:59:15;;;;;;;5.70;2.42;;;;;;;;;;5044293;28;20025;-75
2023/07/15 14:01:41;;;;;;;4.75;2.45;;;;;;;;;;5044295;28;20037;-77
2023/07/15 14:04:07;;;;;;;2.90;2.17;;;;;;;;;;5048072;28;20048;-76
2023/07/15 14:06:32;;;;;;;4.10;2.20;;;;;;;;;;5045071;28;20021;-75
2023/07/15 14:08:57;;;;;;;5.30;2.58;;;;;;;;;;5050131;28;20053;-76
2023/07/15 14:11:23;;;;;;;4.28;2.72;;;;;;;;;;5043246;28;20094;-75
2023/07/15 14:13:48;;;;;;;5.05;2.40;;;;;;;;;;5037915;28;20036;-75
2023/07/15 14:16:13;;;;;;;5.13;2.13;;;;;;;;;;5044043;28;20017;-75
2023/07/15 14:18:39;;;;;;;5.18;2.35;;;;;;;;;;5045147;28;20481;-74
2023/07/15 14:21:04;;;;;;;3.33;2.50;;;;;;;;;;5038415;28;20029;-73
2023/07/15 14:23:30;;;;;;;3.15;2.40;;;;;;;;;;5042008;28;20086;-74
2023/07/15 14:25:56;;;;;;;5.35;2.65;;;;;;;;;;5043017;28;20044;-74
2023/07/15 14:28:21;;;;;;;4.55;2.13;;;;;;;;;;5044075;28;20036;-73
2023/07/15 14:30:46;;;;;;;4.43;2.55;;;;;;;;;;5044375;28;20030;-74
2023/07/15 14:33:11;;;;;;;3.85;2.40;;;;;;;;;;5043638;28;20017;-75
2023/07/15 14:35:37;;;;;;;3.65;2.17;;;;;;;;;;5036575;28;20501;-74
2023/07/15 14:38:02;;;;;;;4.93;2.17;;;;;;;;;;5040187;28;20116;-74